Time;durP1;ratioP1;P1;durP2;ratioP2;P2;SDS_P1;SDS_P2;PMS_P1;PMS_P2;Temp;Humidity;BMP_temperature;BMP_pressure;BME280_temperature;BME280_humidity;BME280_pressure;Samples;Min_cycle;Max_cycle;Signal;HPM_P1;HPM_P2
2022/03/05 00:00:31;;;;;;;4.32;3.83;;;21.60;34.30;;;;;;4993075;28;20410;-58
2022/03/05 00:03:00;;;;;;;4.07;3.67;;;21.60;34.20;;;;;;4990959;28;20050;-60
2022/03/05 00:05:27;;;;;;;3.83;3.53;;;21.50;34.10;;;;;;4993813;28;20072;-60
2022/03/05 00:07:52;;;;;;;4.07;3.70;;;21.60;34.10;;;;;;4993179;28;20077;-59
2022/03/05 00:10:19;;;;;;;4.40;3.50;;;21.50;34.10;;;;;;4991989;28;20730;-59
2022/03/05 00:12:51;;;;;;;4.50;3.60;;;21.50;34.10;;;;;;4991517;28;20073;-60
2022/03/05 00:15:18;;;;;;;4.43;4.03;;;21.50;34.00;;;;;;4992153;28;20176;-59
2022/03/05 00:17:44;;;;;;;3.70;3.40;;;21.50;34.00;;;;;;4991612;28;20049;-59
2022/03/05 00:20:11;;;;;;;4.28;3.60;;;21.50;34.10;;;;;;4993309;28;20058;-60
2022/03/05 00:22:36;;;;;;;4.28;3.88;;;21.50;34.00;;;;;;4991973;28;20050;-60
2022/03/05 00:25:03;;;;;;;4.07;3.67;;;21.50;34.00;;;;;;4998300;28;20042;-60
2022/03/05 00:27:29;;;;;;;4.13;3.70;;;21.50;34.00;;;;;;4992742;28;20125;-59
2022/03/05 00:29:55;;;;;;;3.97;3.67;;;21.40;34.00;;;;;;4990015;28;20287;-62
2022/03/05 00:32:20;;;;;;;4.82;3.72;;;21.40;34.00;;;;;;4989478;28;20054;-59
2022/03/05 00:34:47;;;;;;;3.72;3.42;;;21.40;34.10;;;;;;4994084;28;20046;-59
2022/03/05 00:37:12;;;;;;;4.50;4.10;;;21.40;33.90;;;;;;4995027;28;20049;-59
2022/03/05 00:39:38;;;;;;;4.57;3.72;;;21.40;33.80;;;;;;4992941;28;20058;-59
2022/03/05 00:42:04;;;;;;;3.60;3.17;;;21.40;33.90;;;;;;4992991;28;20078;-59
2022/03/05 00:44:30;;;;;;;4.05;3.63;;;21.30;33.80;;;;;;4992295;28;20053;-60
2022/03/05 00:46:56;;;;;;;5.95;3.88;;;21.30;33.80;;;;;;4988368;28;20050;-59
2022/03/05 00:49:22;;;;;;;4.05;3.40;;;21.30;33.70;;;;;;4990102;28;20697;-59
2022/03/05 00:51:48;;;;;;;6.15;3.80;;;21.30;33.70;;;;;;4992316;28;20046;-59
2022/03/05 00:54:14;;;;;;;4.40;4.00;;;21.30;33.70;;;;;;4991158;28;20083;-60
2022/03/05 00:56:40;;;;;;;4.78;3.75;;;21.20;33.70;;;;;;4995314;28;20089;-59
2022/03/05 00:59:05;;;;;;;4.00;3.60;;;21.20;33.60;;;;;;4993187;28;20397;-59
2022/03/05 01:01:31;;;;;;;3.55;3.25;;;21.20;33.60;;;;;;4996240;28;20128;-59
2022/03/05 01:03:56;;;;;;;3.97;3.58;;;21.20;33.60;;;;;;4996066;28;20060;-60
2022/03/05 01:06:22;;;;;;;4.28;3.88;;;21.20;33.60;;;;;;4996076;28;20365;-60
2022/03/05 01:08:48;;;;;;;4.32;3.70;;;21.20;33.60;;;;;;4997140;28;20046;-59
2022/03/05 01:11:16;;;;;;;4.03;3.70;;;21.20;33.50;;;;;;5009390;28;20128;-59
2022/03/05 01:13:45;;;;;;;5.03;3.58;;;21.20;33.50;;;;;;4995279;28;20124;-59
2022/03/05 01:16:12;;;;;;;5.15;3.72;;;21.20;33.50;;;;;;4996478;28;20149;-59
2022/03/05 01:18:37;;;;;;;5.35;3.70;;;21.10;33.40;;;;;;4996394;28;20133;-59
2022/03/05 01:21:03;;;;;;;4.72;3.50;;;21.10;33.40;;;;;;4996818;28;20128;-60
2022/03/05 01:23:29;;;;;;;3.80;3.50;;;21.10;33.40;;;;;;4993428;28;20158;-59
2022/03/05 01:25:54;;;;;;;5.20;3.80;;;21.10;33.40;;;;;;4993011;28;20053;-59
2022/03/05 01:28:20;;;;;;;4.35;3.78;;;21.10;33.40;;;;;;4992449;28;20229;-59
2022/03/05 01:30:46;;;;;;;5.35;3.67;;;21.00;33.40;;;;;;4996401;28;20038;-60
2022/03/05 01:33:15;;;;;;;4.30;3.78;;;21.10;33.40;;;;;;4995881;28;20058;-59
2022/03/05 01:35:44;;;;;;;3.70;3.40;;;21.00;33.40;;;;;;4995798;28;20057;-59
2022/03/05 01:38:10;;;;;;;3.80;3.35;;;21.00;33.30;;;;;;5000727;28;20056;-60
2022/03/05 01:40:36;;;;;;;4.40;3.30;;;21.00;33.40;;;;;;4992155;28;20188;-59
2022/03/05 01:43:02;;;;;;;3.70;3.30;;;21.00;33.30;;;;;;4996003;28;20682;-59
2022/03/05 01:45:28;;;;;;;4.05;3.45;;;21.00;33.40;;;;;;4995955;28;20704;-59
2022/03/05 01:47:54;;;;;;;4.05;3.70;;;21.00;33.30;;;;;;4996418;28;20505;-60
2022/03/05 01:50:19;;;;;;;5.63;3.60;;;20.90;33.30;;;;;;4996617;28;20445;-59
2022/03/05 01:52:45;;;;;;;4.10;3.70;;;20.90;33.20;;;;;;4994928;28;20042;-59
2022/03/05 01:55:13;;;;;;;3.78;3.40;;;20.90;33.20;;;;;;4980076;28;20584;-59
2022/03/05 01:57:39;;;;;;;3.53;3.22;;;20.90;33.20;;;;;;4995230;28;20465;-60
2022/03/05 02:00:07;;;;;;;3.35;3.05;;;20.90;33.20;;;;;;4996502;28;20049;-59
2022/03/05 02:02:32;;;;;;;4.65;3.60;;;20.90;33.10;;;;;;4994963;28;20748;-60
2022/03/05 02:04:58;;;;;;;3.50;3.20;;;20.90;33.30;;;;;;4994810;28;20049;-60
2022/03/05 02:07:23;;;;;;;4.00;3.42;;;20.90;33.30;;;;;;4996698;28;20050;-59
2022/03/05 02:09:50;;;;;;;3.67;3.20;;;20.90;33.20;;;;;;4992460;28;20445;-59
2022/03/05 02:12:15;;;;;;;4.45;3.38;;;20.90;33.20;;;;;;4994768;28;20073;-60
2022/03/05 02:14:41;;;;;;;3.63;3.28;;;20.90;33.20;;;;;;4998610;28;20134;-59
2022/03/05 02:17:07;;;;;;;3.53;3.22;;;20.80;33.30;;;;;;4998895;28;20104;-60
2022/03/05 02:19:32;;;;;;;4.10;3.45;;;20.90;33.20;;;;;;4995367;28;20053;-60
2022/03/05 02:21:58;;;;;;;4.65;3.55;;;20.90;33.30;;;;;;4994293;28;20031;-59
2022/03/05 02:24:32;;;;;;;3.35;3.05;;;20.80;33.20;;;;;;4992665;28;20050;-60
2022/03/05 02:26:59;;;;;;;4.45;3.70;;;20.80;33.30;;;;;;4993524;28;20061;-59
2022/03/05 02:29:25;;;;;;;3.65;3.35;;;20.80;33.30;;;;;;4994911;28;20050;-59
2022/03/05 02:31:52;;;;;;;4.10;3.70;;;20.80;33.30;;;;;;4995387;28;20093;-60
2022/03/05 02:34:18;;;;;;;3.58;3.28;;;20.80;33.30;;;;;;4995619;28;20058;-59
2022/03/05 02:36:43;;;;;;;3.60;3.30;;;20.80;33.40;;;;;;4993540;28;20042;-61
2022/03/05 02:39:09;;;;;;;3.47;3.13;;;20.80;33.40;;;;;;4994228;28;20051;-59
2022/03/05 02:41:35;;;;;;;3.55;3.25;;;20.80;33.40;;;;;;4991170;28;20084;-59
2022/03/05 02:44:01;;;;;;;3.63;3.33;;;20.70;33.40;;;;;;4994689;28;20042;-59
2022/03/05 02:46:28;;;;;;;3.75;3.45;;;20.70;33.30;;;;;;4995031;28;20062;-59
2022/03/05 02:48:53;;;;;;;4.07;3.35;;;20.70;33.40;;;;;;4994036;28;20404;-60
2022/03/05 02:51:20;;;;;;;3.70;3.20;;;20.70;33.30;;;;;;4992362;28;20042;-60
2022/03/05 02:53:46;;;;;;;3.60;3.30;;;20.70;33.40;;;;;;4995694;28;20152;-58
2022/03/05 02:56:12;;;;;;;3.60;3.30;;;20.70;33.30;;;;;;4993287;28;20133;-60
2022/03/05 02:58:38;;;;;;;3.85;3.40;;;20.70;33.30;;;;;;4994485;28;20832;-60
2022/03/05 03:01:03;;;;;;;3.80;3.38;;;20.70;33.30;;;;;;4991313;28;20050;-61
2022/03/05 03:03:29;;;;;;;3.70;3.40;;;20.60;33.20;;;;;;4990908;28;20077;-59
2022/03/05 03:05:54;;;;;;;3.60;3.30;;;20.60;33.10;;;;;;4985059;28;20108;-61
2022/03/05 03:08:20;;;;;;;4.32;3.50;;;20.60;33.20;;;;;;4993008;28;20050;-59
2022/03/05 03:10:46;;;;;;;3.60;3.30;;;20.60;33.30;;;;;;4994493;28;20189;-59
2022/03/05 03:13:11;;;;;;;3.85;3.42;;;20.60;33.20;;;;;;4993606;28;20061;-59
2022/03/05 03:15:37;;;;;;;3.95;3.53;;;20.60;33.20;;;;;;4993635;28;20552;-59
2022/03/05 03:18:02;;;;;;;3.30;3.00;;;20.60;33.20;;;;;;4994375;28;20058;-59
2022/03/05 03:20:28;;;;;;;3.47;3.17;;;20.60;33.20;;;;;;4988616;28;20315;-59
2022/03/05 03:22:54;;;;;;;3.78;3.38;;;20.60;33.20;;;;;;4991908;28;20077;-60
2022/03/05 03:25:20;;;;;;;3.67;3.28;;;20.60;33.20;;;;;;4992327;28;20050;-59
2022/03/05 03:27:46;;;;;;;3.95;3.20;;;20.50;33.10;;;;;;4992934;28;20053;-60
2022/03/05 03:30:14;;;;;;;3.70;3.40;;;20.50;33.10;;;;;;4995086;28;20042;-59
2022/03/05 03:32:40;;;;;;;4.75;3.20;;;20.50;33.10;;;;;;4994650;28;20061;-58
2022/03/05 03:35:07;;;;;;;3.42;3.08;;;20.50;33.00;;;;;;4991796;28;20517;-60
2022/03/05 03:37:33;;;;;;;3.30;3.00;;;20.50;33.10;;;;;;4994195;28;20050;-61
2022/03/05 03:40:01;;;;;;;3.10;2.90;;;20.50;33.00;;;;;;4993193;28;20046;-59
2022/03/05 03:42:27;;;;;;;4.13;3.72;;;20.50;33.00;;;;;;4995217;28;20168;-60
2022/03/05 03:44:54;;;;;;;3.13;2.92;;;20.40;33.00;;;;;;4994749;28;20100;-59
2022/03/05 03:47:20;;;;;;;4.25;3.10;;;20.50;33.00;;;;;;4989003;28;20178;-59
2022/03/05 03:49:46;;;;;;;3.63;3.13;;;20.40;33.00;;;;;;4992637;28;20078;-59
2022/03/05 03:52:15;;;;;;;3.55;3.25;;;20.40;33.00;;;;;;4992779;28;20084;-59
2022/03/05 03:54:43;;;;;;;3.00;2.72;;;20.40;33.00;;;;;;4992819;28;20181;-60
2022/03/05 03:57:09;;;;;;;5.07;3.30;;;20.40;33.00;;;;;;4992948;28;20046;-61
2022/03/05 03:59:34;;;;;;;3.33;2.78;;;20.40;33.00;;;;;;4982947;28;20046;-59
2022/03/05 04:02:02;;;;;;;3.38;3.08;;;20.40;33.00;;;;;;4991494;28;20513;-59
2022/03/05 04:04:28;;;;;;;3.35;3.03;;;20.40;33.00;;;;;;4991030;28;20413;-59
2022/03/05 04:09:38;;;;;;;3.40;3.10;;;20.30;32.80;;;;;;4990528;28;20085;-59
2022/03/05 04:12:04;;;;;;;3.10;2.80;;;20.30;32.90;;;;;;4990812;28;20161;-59
2022/03/05 04:14:29;;;;;;;3.25;2.80;;;20.30;33.00;;;;;;4992763;28;20050;-59
2022/03/05 04:16:55;;;;;;;3.40;3.10;;;20.30;32.90;;;;;;4990082;28;20049;-58
2022/03/05 04:19:20;;;;;;;4.10;3.75;;;20.30;32.90;;;;;;4991114;28;20054;-60
2022/03/05 04:21:46;;;;;;;3.40;3.10;;;20.30;32.90;;;;;;4993375;28;20068;-58
2022/03/05 04:24:11;;;;;;;3.38;3.08;;;20.30;32.90;;;;;;4991649;28;20596;-59
2022/03/05 04:26:38;;;;;;;3.90;3.60;;;20.30;32.80;;;;;;4991954;28;20389;-60
2022/03/05 04:29:04;;;;;;;3.13;2.83;;;20.20;32.70;;;;;;4987771;28;20050;-62
2022/03/05 04:31:30;;;;;;;3.42;3.13;;;20.20;32.80;;;;;;4992790;28;20081;-60
2022/03/05 04:33:56;;;;;;;3.65;3.35;;;20.20;32.70;;;;;;4991383;28;20482;-58
2022/03/05 04:36:22;;;;;;;3.20;2.90;;;20.20;32.70;;;;;;4990073;28;20049;-61
2022/03/05 04:38:47;;;;;;;3.15;2.85;;;20.20;32.70;;;;;;4994247;28;20095;-58
2022/03/05 04:41:13;;;;;;;4.38;3.20;;;20.20;32.70;;;;;;4992531;28;20053;-60
2022/03/05 04:43:39;;;;;;;3.35;3.05;;;20.20;32.70;;;;;;4989710;28;20101;-59
2022/03/05 04:46:04;;;;;;;3.60;3.30;;;20.20;32.70;;;;;;4991457;28;20062;-59
2022/03/05 04:48:30;;;;;;;3.38;3.08;;;20.20;32.70;;;;;;4993754;28;20075;-58
2022/03/05 04:50:55;;;;;;;3.55;3.25;;;20.20;32.70;;;;;;4993230;28;20746;-59
2022/03/05 04:53:21;;;;;;;3.38;2.95;;;20.20;32.70;;;;;;4991618;28;20552;-59
2022/03/05 04:55:48;;;;;;;3.83;3.40;;;20.10;32.60;;;;;;4998579;28;20050;-59
2022/03/05 04:58:14;;;;;;;3.38;3.08;;;20.10;32.60;;;;;;4992019;28;20569;-60
2022/03/05 05:00:40;;;;;;;4.05;3.72;;;20.10;32.60;;;;;;4989640;28;20069;-61
2022/03/05 05:03:05;;;;;;;3.58;3.28;;;20.10;32.60;;;;;;4991901;28;20050;-59
2022/03/05 05:05:31;;;;;;;3.05;2.75;;;20.10;32.60;;;;;;4989500;28;20053;-59
2022/03/05 05:07:56;;;;;;;3.60;3.30;;;20.10;32.60;;;;;;4989536;28;20046;-59
2022/03/05 05:10:22;;;;;;;3.28;3.08;;;20.10;32.60;;;;;;4996818;28;20632;-59
2022/03/05 05:12:48;;;;;;;4.00;3.60;;;20.00;32.50;;;;;;4988643;28;20075;-58
2022/03/05 05:15:14;;;;;;;3.92;3.33;;;20.10;32.50;;;;;;4997182;28;20050;-59
2022/03/05 05:17:39;;;;;;;3.78;3.47;;;20.00;32.50;;;;;;4994205;28;20133;-59
2022/03/05 05:20:06;;;;;;;3.85;3.55;;;20.00;33.30;;;;;;4991060;28;20169;-61
2022/03/05 05:22:32;;;;;;;3.47;3.13;;;20.00;32.50;;;;;;4993867;28;20050;-59
2022/03/05 05:24:59;;;;;;;3.40;3.10;;;20.00;32.50;;;;;;4991621;28;20050;-59
2022/03/05 05:27:25;;;;;;;3.80;3.50;;;20.00;32.50;;;;;;4987044;28;20457;-58
2022/03/05 05:29:51;;;;;;;3.80;3.47;;;20.00;32.50;;;;;;4989104;28;20050;-61
2022/03/05 05:32:17;;;;;;;5.15;3.92;;;20.00;32.60;;;;;;4992488;28;20046;-59
2022/03/05 05:34:43;;;;;;;5.18;3.58;;;20.00;32.40;;;;;;4990854;28;20100;-59
2022/03/05 05:37:08;;;;;;;4.20;3.63;;;20.00;32.50;;;;;;4992437;28;20054;-59
2022/03/05 05:39:34;;;;;;;3.88;3.47;;;20.00;32.40;;;;;;4986571;28;20052;-58
2022/03/05 05:42:00;;;;;;;4.78;3.65;;;20.00;32.40;;;;;;4989735;28;20042;-59
2022/03/05 05:44:26;;;;;;;3.90;3.42;;;20.00;32.40;;;;;;4995959;28;20050;-59
2022/03/05 05:46:51;;;;;;;3.90;3.60;;;20.00;32.40;;;;;;4996262;28;20050;-58
2022/03/05 05:49:17;;;;;;;3.90;3.38;;;20.00;32.40;;;;;;4994795;28;20058;-59
2022/03/05 05:51:43;;;;;;;4.18;3.60;;;20.00;32.50;;;;;;4993387;28;20474;-58
2022/03/05 05:54:08;;;;;;;3.50;3.20;;;20.00;32.50;;;;;;4993895;28;20069;-60
2022/03/05 05:56:34;;;;;;;4.18;3.60;;;20.00;32.40;;;;;;4995972;28;20074;-59
2022/03/05 05:59:00;;;;;;;4.00;3.60;;;20.00;32.40;;;;;;4997078;28;20053;-58
2022/03/05 06:01:26;;;;;;;3.80;3.42;;;20.00;32.50;;;;;;4995184;28;20042;-59
2022/03/05 06:03:53;;;;;;;4.13;3.65;;;20.00;32.40;;;;;;4995361;28;20050;-58
2022/03/05 06:06:20;;;;;;;4.22;3.83;;;20.00;32.40;;;;;;4993070;28;20277;-59
2022/03/05 06:08:46;;;;;;;3.88;3.45;;;20.00;32.60;;;;;;4990886;28;20050;-59
2022/03/05 06:11:11;;;;;;;4.00;3.70;;;20.00;32.50;;;;;;4995590;28;20065;-60
2022/03/05 06:13:38;;;;;;;4.03;3.10;;;20.00;33.20;;;;;;4995955;28;20836;-59
2022/03/05 06:16:04;;;;;;;3.92;3.53;;;20.00;32.50;;;;;;4994864;28;20045;-59
2022/03/05 06:18:29;;;;;;;4.38;3.63;;;20.00;32.60;;;;;;4996268;28;20053;-59
2022/03/05 06:20:55;;;;;;;3.80;3.20;;;20.00;32.50;;;;;;4995541;28;20034;-59
2022/03/05 06:23:21;;;;;;;5.63;3.55;;;20.00;32.50;;;;;;4992224;28;20125;-59
2022/03/05 06:25:46;;;;;;;3.47;3.17;;;20.00;32.60;;;;;;4992700;28;20054;-61
2022/03/05 06:28:12;;;;;;;3.85;3.45;;;20.00;32.60;;;;;;4997581;28;20128;-59
2022/03/05 06:30:38;;;;;;;3.42;3.05;;;20.00;32.50;;;;;;4994445;28;20065;-58
2022/03/05 06:33:04;;;;;;;4.03;3.50;;;20.00;32.50;;;;;;4994932;28;20046;-59
2022/03/05 06:35:29;;;;;;;3.92;3.50;;;20.10;32.60;;;;;;4993356;28;20057;-60
2022/03/05 06:37:55;;;;;;;3.38;3.08;;;20.00;32.50;;;;;;4992467;28;20042;-58
2022/03/05 06:40:21;;;;;;;3.83;3.42;;;20.10;32.60;;;;;;4992826;28;20051;-59
2022/03/05 06:42:46;;;;;;;3.70;3.40;;;20.10;32.80;;;;;;4996274;28;20652;-58
2022/03/05 06:45:12;;;;;;;3.40;3.05;;;20.10;32.80;;;;;;4992942;28;20073;-59
2022/03/05 06:47:39;;;;;;;6.20;3.80;;;20.10;32.80;;;;;;4994475;28;20050;-59
2022/03/05 06:50:06;;;;;;;4.65;3.10;;;20.10;32.60;;;;;;4991958;28;20441;-60
2022/03/05 06:52:31;;;;;;;3.53;3.22;;;20.10;32.80;;;;;;4994470;28;20056;-60
2022/03/05 06:55:00;;;;;;;4.10;3.70;;;20.10;32.80;;;;;;4993281;28;20107;-59
2022/03/05 06:57:26;;;;;;;3.55;3.25;;;20.10;32.80;;;;;;4998569;28;20053;-58
2022/03/05 06:59:52;;;;;;;3.65;3.20;;;20.10;33.70;;;;;;4997198;28;20049;-59
2022/03/05 07:02:18;;;;;;;3.90;3.50;;;20.10;32.90;;;;;;4988386;28;20050;-62
2022/03/05 07:04:43;;;;;;;3.50;3.20;;;20.10;32.90;;;;;;4990104;28;20678;-60
2022/03/05 07:07:09;;;;;;;3.70;3.40;;;20.10;32.90;;;;;;4994212;28;20042;-61
2022/03/05 07:09:35;;;;;;;3.38;3.10;;;20.10;32.90;;;;;;4989837;28;20074;-62
2022/03/05 07:12:00;;;;;;;3.78;3.25;;;20.20;33.00;;;;;;4994106;28;20508;-61
2022/03/05 07:14:26;;;;;;;3.58;3.28;;;20.10;33.30;;;;;;5008290;28;20077;-61
2022/03/05 07:16:52;;;;;;;4.35;3.70;;;20.20;33.70;;;;;;4996805;28;20050;-61
2022/03/05 07:19:18;;;;;;;4.45;3.83;;;20.20;33.80;;;;;;4991404;28;20490;-62
2022/03/05 07:21:43;;;;;;;4.15;3.75;;;20.20;33.80;;;;;;4990165;28;20046;-64
2022/03/05 07:24:09;;;;;;;4.15;3.75;;;20.20;33.70;;;;;;4993973;28;20053;-62
2022/03/05 07:26:35;;;;;;;5.57;3.40;;;20.20;33.80;;;;;;4991779;28;20125;-61
2022/03/05 07:29:01;;;;;;;3.92;3.55;;;20.20;33.80;;;;;;4995135;28;20196;-61
2022/03/05 07:31:27;;;;;;;3.60;3.20;;;20.30;34.00;;;;;;4990973;28;20077;-62
2022/03/05 07:33:52;;;;;;;5.10;3.38;;;20.30;34.00;;;;;;4990186;28;20053;-61
2022/03/05 07:36:19;;;;;;;4.70;3.25;;;20.30;34.20;;;;;;4992786;28;20038;-60
2022/03/05 07:38:45;;;;;;;4.45;3.35;;;20.30;34.20;;;;;;4994815;28;20537;-60
2022/03/05 07:41:11;;;;;;;4.00;3.60;;;20.30;34.30;;;;;;4993825;28;20072;-63
2022/03/05 07:43:37;;;;;;;5.25;3.47;;;20.30;34.40;;;;;;5009067;28;20046;-62
2022/03/05 07:46:04;;;;;;;4.28;3.30;;;20.30;34.40;;;;;;4990289;28;20057;-60
2022/03/05 07:48:29;;;;;;;6.10;3.85;;;20.30;34.50;;;;;;4992553;28;20071;-60
2022/03/05 07:50:58;;;;;;;4.13;3.10;;;20.30;34.50;;;;;;4976831;28;20045;-59
2022/03/05 07:53:26;;;;;;;4.45;3.25;;;20.40;34.60;;;;;;4988390;28;20042;-60
2022/03/05 07:55:51;;;;;;;3.60;3.30;;;20.40;34.60;;;;;;4995254;28;20064;-58
2022/03/05 07:58:17;;;;;;;3.75;3.33;;;20.40;34.60;;;;;;4991340;28;20050;-59
2022/03/05 08:00:42;;;;;;;4.13;3.05;;;20.40;34.60;;;;;;4988061;28;20045;-59
2022/03/05 08:03:08;;;;;;;4.53;3.53;;;20.40;34.90;;;;;;4992369;28;20046;-59
2022/03/05 08:05:33;;;;;;;4.28;3.40;;;20.40;34.80;;;;;;4989907;28;20152;-58
2022/03/05 08:07:59;;;;;;;3.42;3.13;;;20.40;34.90;;;;;;4991244;28;20057;-60
2022/03/05 08:10:24;;;;;;;3.92;3.30;;;20.40;34.80;;;;;;4991338;28;20052;-59
2022/03/05 08:12:50;;;;;;;3.55;3.17;;;20.40;34.80;;;;;;4992157;28;20050;-58
2022/03/05 08:15:16;;;;;;;3.88;3.22;;;20.50;35.20;;;;;;4972539;28;20050;-58
2022/03/05 08:17:58;;;;;;;6.22;3.60;;;20.50;35.30;;;;;;4994095;28;20056;-59
2022/03/05 08:20:26;;;;;;;4.85;3.50;;;20.50;35.20;;;;;;4993271;28;20046;-59
2022/03/05 08:22:52;;;;;;;5.95;3.60;;;20.50;35.20;;;;;;5006083;28;20052;-59
2022/03/05 08:25:18;;;;;;;5.82;3.65;;;20.50;35.10;;;;;;4990075;28;20453;-60
2022/03/05 08:27:44;;;;;;;3.72;3.17;;;20.50;35.10;;;;;;4992513;28;20050;-64
2022/03/05 08:30:10;;;;;;;8.35;3.80;;;20.50;35.10;;;;;;4988627;28;20062;-59
2022/03/05 08:32:36;;;;;;;5.63;3.35;;;20.50;35.10;;;;;;4991324;28;20286;-59
2022/03/05 08:35:02;;;;;;;4.72;3.42;;;20.60;35.10;;;;;;4994557;28;20089;-59
2022/03/05 08:37:28;;;;;;;5.35;3.83;;;20.50;35.00;;;;;;4991487;28;20046;-58
2022/03/05 08:39:54;;;;;;;6.57;3.80;;;20.60;35.90;;;;;;4990750;28;20762;-58
2022/03/05 08:42:20;;;;;;;5.72;3.70;;;20.50;34.90;;;;;;5006167;28;20046;-59
2022/03/05 08:44:46;;;;;;;5.78;3.63;;;20.60;35.00;;;;;;4991511;28;20057;-59
2022/03/05 08:47:12;;;;;;;5.63;3.40;;;20.50;35.00;;;;;;4992125;28;20085;-59
2022/03/05 08:49:38;;;;;;;5.22;3.58;;;20.60;34.90;;;;;;4991817;28;20149;-59
2022/03/05 08:52:04;;;;;;;4.70;3.50;;;20.60;34.90;;;;;;4976833;28;20052;-59
2022/03/05 08:54:30;;;;;;;7.13;4.20;;;20.50;34.80;;;;;;4996725;28;20078;-59
2022/03/05 08:56:55;;;;;;;7.07;3.80;;;20.50;34.80;;;;;;4989640;28;20482;-60
2022/03/05 08:59:21;;;;;;;5.20;3.78;;;20.60;34.80;;;;;;4990922;28;20085;-59
2022/03/05 09:01:46;;;;;;;5.95;3.10;;;20.60;34.80;;;;;;4992504;28;20052;-59
2022/03/05 09:04:12;;;;;;;5.80;4.13;;;20.60;34.90;;;;;;4993643;28;20058;-59
2022/03/05 09:06:38;;;;;;;5.72;3.90;;;20.60;34.90;;;;;;4994182;28;21604;-59
2022/03/05 09:09:05;;;;;;;4.53;3.78;;;20.60;34.90;;;;;;4992661;28;20053;-59
2022/03/05 09:11:31;;;;;;;4.55;3.78;;;20.60;35.00;;;;;;4990751;28;20049;-59
2022/03/05 09:13:57;;;;;;;4.05;3.65;;;20.60;35.00;;;;;;4993371;28;20058;-59
2022/03/05 09:16:22;;;;;;;4.68;3.78;;;20.60;35.00;;;;;;4992984;28;20067;-59
2022/03/05 09:18:48;;;;;;;4.45;4.05;;;20.60;35.10;;;;;;4980524;28;20096;-59
2022/03/05 09:21:14;;;;;;;4.78;3.90;;;20.70;35.30;;;;;;4992570;28;20076;-59
2022/03/05 09:23:40;;;;;;;4.20;3.80;;;20.60;35.30;;;;;;4995308;28;20073;-59
2022/03/05 09:26:05;;;;;;;5.00;4.30;;;20.60;36.10;;;;;;4995016;28;20045;-58
2022/03/05 09:28:31;;;;;;;7.60;4.22;;;20.70;35.40;;;;;;4994746;28;20375;-59
2022/03/05 09:30:58;;;;;;;6.18;4.90;;;20.70;35.50;;;;;;4996857;28;20565;-59
2022/03/05 09:33:24;;;;;;;6.40;4.40;;;20.70;35.70;;;;;;4994864;28;20046;-59
2022/03/05 09:35:50;;;;;;;7.75;4.50;;;20.80;35.90;;;;;;4994963;28;20119;-59
2022/03/05 09:38:16;;;;;;;7.97;4.43;;;20.80;36.20;;;;;;4994923;28;20088;-60
2022/03/05 09:40:42;;;;;;;9.30;4.65;;;20.80;36.30;;;;;;4992587;28;20121;-59
2022/03/05 09:43:07;;;;;;;7.53;4.70;;;20.90;36.70;;;;;;4995354;28;20054;-58
2022/03/05 09:45:34;;;;;;;7.15;4.32;;;20.90;36.90;;;;;;4974954;28;20085;-60
2022/03/05 09:48:00;;;;;;;6.90;4.32;;;20.90;37.10;;;;;;4995315;28;20128;-59
2022/03/05 09:50:28;;;;;;;7.50;4.65;;;20.90;37.20;;;;;;4993962;28;20729;-59
2022/03/05 09:52:58;;;;;;;7.93;4.90;;;20.90;37.50;;;;;;4994229;28;20042;-59
2022/03/05 09:55:23;;;;;;;8.23;4.57;;;21.00;37.90;;;;;;4993790;28;20042;-59
2022/03/05 09:57:49;;;;;;;7.32;4.38;;;21.00;38.00;;;;;;4995177;28;20551;-59
2022/03/05 10:00:15;;;;;;;7.47;4.50;;;21.00;37.90;;;;;;4995333;28;20050;-59
2022/03/05 10:02:40;;;;;;;6.78;4.63;;;21.00;38.20;;;;;;4976589;28;21005;-58
2022/03/05 10:05:16;;;;;;;8.35;4.68;;;21.10;38.40;;;;;;4993268;28;20077;-61
2022/03/05 10:08:15;;;;;;;7.78;4.40;;;21.10;38.90;;;;;;4991404;28;20084;-59
2022/03/05 10:10:52;;;;;;;6.88;4.63;;;21.10;39.90;;;;;;4998596;28;20534;-58
2022/03/05 10:13:23;;;;;;;5.47;4.88;;;21.10;39.20;;;;;;4995762;28;20413;-58
2022/03/05 10:15:51;;;;;;;7.30;4.88;;;21.10;39.30;;;;;;4993977;28;20045;-58
2022/03/05 10:18:17;;;;;;;8.32;4.95;;;21.10;39.20;;;;;;4992857;28;20046;-59
2022/03/05 10:20:48;;;;;;;8.45;5.40;;;21.20;39.40;;;;;;4990810;28;20052;-60
2022/03/05 10:23:13;;;;;;;;;;;21.20;39.60;;;;;;4992850;28;20124;-59
2022/03/05 10:25:44;;;;;;;5.43;4.40;;;21.20;40.00;;;;;;4994223;28;20328;-59
2022/03/05 10:28:13;;;;;;;9.00;4.85;;;21.20;39.50;;;;;;4995386;28;20046;-60
2022/03/05 10:30:41;;;;;;;5.57;4.45;;;21.20;39.50;;;;;;4994471;28;20046;-61
2022/03/05 10:33:11;;;;;;;6.63;4.50;;;21.20;39.60;;;;;;4991399;28;20066;-60
2022/03/05 10:35:39;;;;;;;4.90;4.28;;;21.20;39.50;;;;;;4990644;28;20097;-59
2022/03/05 10:38:04;;;;;;;5.70;4.47;;;21.20;39.70;;;;;;5007984;28;20058;-59
2022/03/05 10:40:35;;;;;;;5.95;4.80;;;21.20;39.70;;;;;;4992656;28;20041;-60
2022/03/05 10:43:06;;;;;;;6.70;4.70;;;21.20;39.40;;;;;;4997186;28;20050;-60
2022/03/05 10:45:49;;;;;;;5.85;4.85;;;21.20;39.40;;;;;;4995858;28;20133;-60
2022/03/05 10:48:23;;;;;;;8.05;5.05;;;21.30;39.30;;;;;;4994908;28;20050;-60
2022/03/05 10:50:58;;;;;;;8.35;5.10;;;21.20;39.20;;;;;;4992267;28;20077;-60
2022/03/05 10:53:42;;;;;;;6.82;5.20;;;21.30;39.10;;;;;;4997213;28;20081;-60
2022/03/05 10:56:27;;;;;;;6.38;5.18;;;21.30;39.30;;;;;;4995033;28;20105;-60
2022/03/05 10:59:09;;;;;;;11.82;5.40;;;21.30;39.10;;;;;;4994316;28;20046;-60
2022/03/05 11:01:38;;;;;;;6.95;5.25;;;21.30;39.10;;;;;;4994094;28;20046;-60
2022/03/05 11:04:05;;;;;;;10.02;5.18;;;21.30;39.00;;;;;;4988999;28;20069;-60
2022/03/05 11:06:33;;;;;;;9.18;5.63;;;21.30;39.00;;;;;;4995069;28;20050;-60
2022/03/05 11:09:00;;;;;;;10.82;5.60;;;21.30;39.00;;;;;;4994503;28;20054;-61
2022/03/05 11:11:26;;;;;;;6.25;4.43;;;21.30;38.70;;;;;;4994466;28;20133;-60
2022/03/05 11:13:52;;;;;;;10.57;5.32;;;21.30;38.60;;;;;;4993688;28;20042;-67
2022/03/05 11:16:19;;;;;;;7.10;4.90;;;21.30;38.30;;;;;;4995727;28;20046;-60
2022/03/05 11:18:44;;;;;;;9.63;5.55;;;21.30;38.10;;;;;;4991053;28;21018;-61
2022/03/05 11:21:11;;;;;;;6.88;5.60;;;21.30;38.30;;;;;;4980394;28;20061;-61
2022/03/05 11:23:38;;;;;;;6.78;5.57;;;21.30;38.30;;;;;;4994659;28;20046;-61
2022/03/05 11:26:07;;;;;;;6.63;5.75;;;21.30;38.00;;;;;;4998673;28;20125;-61
2022/03/05 11:28:48;;;;;;;7.75;6.15;;;21.30;37.80;;;;;;4992414;28;21011;-60
2022/03/05 11:31:15;;;;;;;7.40;5.88;;;21.30;37.60;;;;;;4991210;28;20053;-61
2022/03/05 11:33:43;;;;;;;7.47;6.18;;;21.30;37.50;;;;;;4993969;28;20119;-61
2022/03/05 11:36:36;;;;;;;8.63;6.43;;;21.30;37.40;;;;;;4994224;28;20068;-61
2022/03/05 11:39:19;;;;;;;7.35;6.28;;;21.30;37.30;;;;;;4994268;28;20050;-60
2022/03/05 11:41:52;;;;;;;6.32;5.72;;;21.30;37.10;;;;;;4995179;28;20151;-61
2022/03/05 11:44:20;;;;;;;7.75;5.35;;;21.30;37.20;;;;;;4992266;28;20042;-60
2022/03/05 11:46:46;;;;;;;5.80;5.20;;;21.30;37.20;;;;;;4973431;28;20062;-60
2022/03/05 11:49:13;;;;;;;6.63;5.95;;;21.20;37.10;;;;;;4990710;28;20069;-61
2022/03/05 11:51:56;;;;;;;7.18;5.68;;;21.30;37.20;;;;;;4991822;28;20042;-62
2022/03/05 11:54:23;;;;;;;8.73;5.88;;;21.30;37.20;;;;;;4992646;28;20160;-62
2022/03/05 11:57:04;;;;;;;7.00;5.70;;;21.30;37.30;;;;;;4991454;28;20042;-58
2022/03/05 11:59:31;;;;;;;8.05;5.90;;;21.30;37.30;;;;;;4989145;28;20371;-61
2022/03/05 12:01:56;;;;;;;6.22;5.63;;;21.30;37.30;;;;;;4996215;28;20033;-61
2022/03/05 12:04:24;;;;;;;5.75;5.03;;;21.30;37.30;;;;;;4993141;28;20053;-61
2022/03/05 12:06:52;;;;;;;6.57;5.30;;;21.30;37.30;;;;;;4992760;28;20104;-61
2022/03/05 12:09:36;;;;;;;5.75;5.25;;;21.30;37.30;;;;;;4990828;28;20096;-61
2022/03/05 12:12:15;;;;;;;9.43;5.75;;;21.30;37.30;;;;;;4992249;28;20046;-60
2022/03/05 12:14:55;;;;;;;8.43;5.82;;;21.30;37.30;;;;;;4990575;28;20081;-61
2022/03/05 12:17:26;;;;;;;6.07;5.40;;;21.30;37.30;;;;;;4992427;28;20050;-61
2022/03/05 12:19:53;;;;;;;7.07;5.53;;;21.30;37.30;;;;;;5007043;28;20050;-58
2022/03/05 12:22:19;;;;;;;6.88;5.70;;;21.30;37.30;;;;;;4992926;28;20042;-61
2022/03/05 12:24:45;;;;;;;6.47;5.03;;;21.30;37.30;;;;;;4998761;28;20375;-61
2022/03/05 12:27:15;;;;;;;8.73;5.47;;;21.30;37.30;;;;;;4991250;28;20038;-61
2022/03/05 12:29:48;;;;;;;6.18;5.55;;;21.30;37.30;;;;;;4992418;28;20049;-61
2022/03/05 12:32:15;;;;;;;7.95;5.28;;;21.30;37.30;;;;;;4991906;28;20517;-61
2022/03/05 12:34:41;;;;;;;6.47;5.72;;;21.30;37.20;;;;;;4991928;28;20125;-60
2022/03/05 12:37:07;;;;;;;5.90;5.32;;;21.30;37.30;;;;;;5006630;28;20179;-61
2022/03/05 12:39:33;;;;;;;6.07;5.47;;;21.30;37.30;;;;;;4991923;28;20070;-59
2022/03/05 12:41:59;;;;;;;8.30;5.68;;;21.30;37.30;;;;;;4978865;28;20124;-60
2022/03/05 12:44:24;;;;;;;7.28;5.55;;;21.30;37.20;;;;;;4992632;28;20042;-59
2022/03/05 12:46:50;;;;;;;6.90;5.82;;;21.30;37.20;;;;;;4992107;28;20141;-58
2022/03/05 12:49:16;;;;;;;7.00;5.20;;;21.30;37.20;;;;;;4992134;28;20077;-58